Time;durP1;ratioP1;P1;durP2;ratioP2;P2;SDS_P1;SDS_P2;PMS_P1;PMS_P2;Temp;Humidity;BMP_temperature;BMP_pressure;BME280_temperature;BME280_humidity;BME280_pressure;Samples;Min_cycle;Max_cycle;Signal;HPM_P1;HPM_P2
2021/01/05 08:05:22;;;;;;;9.38;7.60;;;;;;;;;;12865651;22;814742;-84
2021/01/05 08:21:29;;;;;;;11.75;9.30;;;;;;;;;;12843196;23;20025;-88
2021/01/05 08:32:32;;;;;;;9.77;6.57;;;;;;;;;;12813459;23;20001;-87
2021/01/05 08:37:48;;;;;;;9.23;7.32;;;;;;;;;;12810060;23;20056;-87
2021/01/05 08:42:49;;;;;;;9.88;7.30;;;;;;;;;;12787904;23;20079;-86
2021/01/05 08:48:34;;;;;;;10.33;9.00;;;;;;;;;;12788171;23;20430;-88
2021/01/05 08:53:53;;;;;;;13.00;10.32;;;;;;;;;;12783904;23;20013;-88
2021/01/05 09:21:48;;;;;;;11.88;9.55;;;;;;;;;;12809295;23;20017;-89
2021/01/05 09:32:23;;;;;;;11.82;9.98;;;;;;;;;;12770118;23;20009;-87
2021/01/05 09:37:32;;;;;;;8.77;6.93;;;;;;;;;;12782796;23;20013;-89
2021/01/05 09:48:44;;;;;;;10.98;7.82;;;;;;;;;;12809633;23;20316;-87
2021/01/05 09:54:15;;;;;;;12.03;8.67;;;;;;;;;;12783628;23;20009;-89
2021/01/05 09:59:46;;;;;;;11.88;7.38;;;;;;;;;;12783502;23;20405;-89
2021/01/05 10:10:36;;;;;;;9.82;8.35;;;;;;;;;;12808328;23;20426;-89
2021/01/05 10:15:44;;;;;;;11.40;8.68;;;;;;;;;;12806542;23;20009;-87
2021/01/05 10:21:06;;;;;;;11.98;9.10;;;;;;;;;;12809968;23;20001;-87
2021/01/05 10:26:17;;;;;;;10.35;7.47;;;;;;;;;;12787937;23;20036;-90
2021/01/05 10:31:18;;;;;;;10.43;8.05;;;;;;;;;;12780872;23;20024;-87
2021/01/05 10:36:38;;;;;;;10.65;9.43;;;;;;;;;;12780221;23;20008;-91
2021/01/05 10:42:14;;;;;;;11.40;9.47;;;;;;;;;;12782171;23;20002;-89
2021/01/05 10:47:45;;;;;;;8.63;6.97;;;;;;;;;;12780878;23;20015;-90
2021/01/05 10:52:53;;;;;;;8.30;7.00;;;;;;;;;;12807896;23;20009;-90
2021/01/05 10:58:05;;;;;;;8.70;7.10;;;;;;;;;;12756315;23;20108;-91
2021/01/05 11:03:12;;;;;;;8.00;6.82;;;;;;;;;;12800407;23;20008;-87
2021/01/05 11:08:38;;;;;;;9.18;7.93;;;;;;;;;;12832264;23;20024;-86
2021/01/05 11:14:02;;;;;;;12.15;10.10;;;;;;;;;;12750543;23;20001;-88
2021/01/05 11:19:06;;;;;;;13.30;10.95;;;;;;;;;;12689393;23;20014;-89
2021/01/05 11:30:02;;;;;;;11.98;10.00;;;;;;;;;;12500363;23;20019;-89
2021/01/05 11:35:06;;;;;;;9.77;8.60;;;;;;;;;;12500578;23;20348;-86
2021/01/05 11:40:07;;;;;;;10.30;8.13;;;;;;;;;;12686597;23;20445;-86
2021/01/05 11:45:10;;;;;;;8.23;7.20;;;;;;;;;;12784624;23;20009;-87
2021/01/05 11:50:11;;;;;;;9.32;7.70;;;;;;;;;;12786123;23;20091;-88
2021/01/05 11:55:13;;;;;;;15.50;13.82;;;;;;;;;;12791404;23;20009;-89
2021/01/05 12:00:17;;;;;;;13.95;12.45;;;;;;;;;;12789331;23;20430;-87
2021/01/05 12:05:18;;;;;;;11.77;10.20;;;;;;;;;;12789699;23;20422;-89
2021/01/05 12:10:20;;;;;;;13.27;11.38;;;;;;;;;;12789821;23;20087;-88
2021/01/05 12:15:21;;;;;;;10.65;9.55;;;;;;;;;;12788696;23;20016;-89
2021/01/05 12:20:27;;;;;;;12.13;10.82;;;;;;;;;;12789234;23;20074;-88
2021/01/05 12:25:29;;;;;;;12.52;10.52;;;;;;;;;;12789147;23;20020;-88
2021/01/05 12:30:30;;;;;;;11.63;10.43;;;;;;;;;;12808943;23;20009;-89
2021/01/05 12:35:31;;;;;;;10.93;9.73;;;;;;;;;;12828154;23;20001;-87
2021/01/05 12:40:32;;;;;;;11.77;10.57;;;;;;;;;;12832543;23;20008;-88
2021/01/05 12:45:33;;;;;;;9.95;8.95;;;;;;;;;;12801730;23;20069;-88
2021/01/05 12:50:34;;;;;;;9.30;8.40;;;;;;;;;;12788038;23;20041;-87
2021/01/05 12:55:35;;;;;;;13.13;11.73;;;;;;;;;;12786496;23;20024;-88
2021/01/05 13:00:36;;;;;;;7.82;6.72;;;;;;;;;;12785734;23;20008;-85
2021/01/05 13:05:37;;;;;;;10.15;9.13;;;;;;;;;;12812736;23;20009;-86
2021/01/05 13:10:38;;;;;;;9.65;8.23;;;;;;;;;;12794045;23;20005;-88
2021/01/05 13:15:40;;;;;;;7.45;6.25;;;;;;;;;;12790323;23;20012;-87
2021/01/05 13:20:41;;;;;;;8.45;7.55;;;;;;;;;;12787941;23;20037;-89
2021/01/05 13:25:42;;;;;;;9.18;8.27;;;;;;;;;;12806673;23;20001;-88
2021/01/05 13:30:43;;;;;;;8.40;7.60;;;;;;;;;;12778936;23;20079;-87
2021/01/05 13:35:44;;;;;;;7.63;6.93;;;;;;;;;;12780105;23;20004;-87
2021/01/05 13:40:45;;;;;;;11.93;10.73;;;;;;;;;;12779738;23;20004;-87
2021/01/05 13:45:46;;;;;;;9.63;8.43;;;;;;;;;;12779667;23;20465;-87
2021/01/05 13:50:48;;;;;;;9.63;8.65;;;;;;;;;;12807941;23;20009;-87
2021/01/05 13:55:49;;;;;;;8.55;7.72;;;;;;;;;;12779846;23;20013;-88
2021/01/05 14:00:49;;;;;;;7.65;6.88;;;;;;;;;;12805810;23;19993;-86
2021/01/05 14:05:50;;;;;;;12.48;11.23;;;;;;;;;;12787752;23;20378;-88
2021/01/05 14:10:52;;;;;;;10.30;9.30;;;;;;;;;;12799813;23;20024;-87
2021/01/05 14:15:53;;;;;;;13.48;11.85;;;;;;;;;;12821683;23;20009;-88
2021/01/05 14:20:54;;;;;;;13.50;12.10;;;;;;;;;;12818126;23;19993;-86
2021/01/05 14:26:00;;;;;;;12.10;10.27;;;;;;;;;;12820756;23;20009;-89
2021/01/05 14:31:01;;;;;;;8.70;7.05;;;;;;;;;;12822093;23;20020;-86
2021/01/05 14:36:02;;;;;;;10.60;9.48;;;;;;;;;;12813130;23;20012;-88
2021/01/05 14:41:03;;;;;;;13.73;12.20;;;;;;;;;;12780150;23;20001;-88
2021/01/05 14:46:04;;;;;;;13.52;11.90;;;;;;;;;;12780281;23;20036;-86
2021/01/05 14:51:05;;;;;;;12.98;9.32;;;;;;;;;;12780153;23;20001;-88
2021/01/05 14:56:06;;;;;;;13.45;11.73;;;;;;;;;;12779938;23;20009;-88
2021/01/05 15:01:08;;;;;;;11.95;10.23;;;;;;;;;;12780538;23;20005;-87
2021/01/05 15:06:14;;;;;;;10.13;8.93;;;;;;;;;;12782728;23;20117;-87
2021/01/05 15:11:17;;;;;;;12.07;10.77;;;;;;;;;;12780137;23;20016;-87
2021/01/05 15:16:19;;;;;;;12.07;10.77;;;;;;;;;;12781344;23;20009;-88
2021/01/05 15:21:21;;;;;;;13.25;11.18;;;;;;;;;;12783595;23;20438;-86
2021/01/05 15:26:23;;;;;;;11.15;9.95;;;;;;;;;;12786115;23;20023;-86
2021/01/05 15:31:25;;;;;;;9.65;8.65;;;;;;;;;;12784873;23;20001;-87
2021/01/05 15:36:26;;;;;;;12.77;11.35;;;;;;;;;;12787775;23;20060;-85
2021/01/05 15:41:30;;;;;;;13.88;11.30;;;;;;;;;;12783964;23;20072;-85
2021/01/05 15:46:31;;;;;;;11.60;9.40;;;;;;;;;;12784421;23;20016;-88
2021/01/05 15:51:44;;;;;;;11.80;10.25;;;;;;;;;;12785950;23;20493;-89
2021/01/05 15:56:49;;;;;;;11.13;9.88;;;;;;;;;;12785350;23;20088;-88
2021/01/05 16:02:01;;;;;;;10.63;9.57;;;;;;;;;;12789941;23;20005;-87
2021/01/05 16:07:08;;;;;;;9.80;8.80;;;;;;;;;;12787846;23;20016;-87
2021/01/05 16:12:09;;;;;;;9.88;8.88;;;;;;;;;;12790081;23;20092;-85
2021/01/05 16:17:11;;;;;;;8.88;7.88;;;;;;;;;;12791065;23;20008;-86
2021/01/05 16:22:12;;;;;;;10.40;9.30;;;;;;;;;;12788098;23;20429;-87
2021/01/05 16:27:13;;;;;;;12.63;9.45;;;;;;;;;;12786945;23;20333;-87
2021/01/05 16:32:14;;;;;;;13.20;10.88;;;;;;;;;;12784768;23;20012;-87
2021/01/05 16:37:16;;;;;;;11.80;10.60;;;;;;;;;;12788395;23;20016;-85
2021/01/05 16:42:17;;;;;;;14.07;10.73;;;;;;;;;;12788396;23;20398;-85
2021/01/05 16:47:18;;;;;;;13.50;11.20;;;;;;;;;;12786734;23;20001;-87
2021/01/05 16:52:19;;;;;;;13.95;12.50;;;;;;;;;;12786681;23;20384;-86
2021/01/05 16:57:20;;;;;;;37.55;32.83;;;;;;;;;;12786152;23;20005;-85
2021/01/05 17:02:22;;;;;;;9.65;8.57;;;;;;;;;;12789114;23;20013;-85
2021/01/05 17:07:25;;;;;;;11.93;10.68;;;;;;;;;;12786820;23;20091;-86
2021/01/05 17:12:26;;;;;;;10.32;9.23;;;;;;;;;;12786087;23;20031;-85
2021/01/05 17:17:28;;;;;;;10.20;8.90;;;;;;;;;;12785094;23;20016;-86
2021/01/05 17:22:29;;;;;;;9.73;8.73;;;;;;;;;;12782050;23;20084;-85
2021/01/05 17:27:30;;;;;;;11.25;9.95;;;;;;;;;;12800244;23;20045;-88
